sensor_id;sensor_type;location;lat;lon;timestamp;P1;durP1;ratioP1;P2;durP2;ratioP2
81821;SDS011;72257;52.384;4.882;2023-09-07T00:00:58;7.13;;;4.93;;
81821;SDS011;72257;52.384;4.882;2023-09-07T00:05:49;7.33;;;4.60;;
81821;SDS011;72257;52.384;4.882;2023-09-07T00:08:14;6.80;;;4.53;;
81821;SDS011;72257;52.384;4.882;2023-09-07T00:10:39;6.97;;;4.33;;
81821;SDS011;72257;52.384;4.882;2023-09-07T00:13:04;6.83;;;4.60;;
81821;SDS011;72257;52.384;4.882;2023-09-07T00:15:30;6.40;;;4.63;;
81821;SDS011;72257;52.384;4.882;2023-09-07T00:18:01;6.75;;;4.40;;
81821;SDS011;72257;52.384;4.882;2023-09-07T00:20:26;6.30;;;4.27;;
81821;SDS011;72257;52.384;4.882;2023-09-07T00:22:52;7.77;;;4.63;;
81821;SDS011;72257;52.384;4.882;2023-09-07T00:25:17;7.57;;;4.47;;
81821;SDS011;72257;52.384;4.882;2023-09-07T00:27:43;6.47;;;3.97;;
81821;SDS011;72257;52.384;4.882;2023-09-07T00:30:08;6.70;;;4.33;;
81821;SDS011;72257;52.384;4.882;2023-09-07T00:32:37;7.10;;;4.55;;
81821;SDS011;72257;52.384;4.882;2023-09-07T00:35:03;6.57;;;4.22;;
81821;SDS011;72257;52.384;4.882;2023-09-07T00:37:30;6.85;;;4.65;;
81821;SDS011;72257;52.384;4.882;2023-09-07T00:39:55;7.38;;;4.65;;
81821;SDS011;72257;52.384;4.882;2023-09-07T00:42:21;7.73;;;4.23;;
81821;SDS011;72257;52.384;4.882;2023-09-07T00:44:46;6.95;;;4.70;;
81821;SDS011;72257;52.384;4.882;2023-09-07T00:47:13;7.40;;;4.70;;
81821;SDS011;72257;52.384;4.882;2023-09-07T00:49:39;7.00;;;4.72;;
81821;SDS011;72257;52.384;4.882;2023-09-07T00:52:05;6.88;;;5.13;;
81821;SDS011;72257;52.384;4.882;2023-09-07T00:54:32;6.63;;;4.57;;
81821;SDS011;72257;52.384;4.882;2023-09-07T00:56:57;6.68;;;4.47;;
81821;SDS011;72257;52.384;4.882;2023-09-07T00:59:23;7.20;;;4.73;;
81821;SDS011;72257;52.384;4.882;2023-09-07T01:01:48;6.30;;;4.25;;
81821;SDS011;72257;52.384;4.882;2023-09-07T01:04:14;5.93;;;4.63;;
81821;SDS011;72257;52.384;4.882;2023-09-07T01:06:40;7.05;;;4.97;;
81821;SDS011;72257;52.384;4.882;2023-09-07T01:09:14;6.43;;;4.55;;
81821;SDS011;72257;52.384;4.882;2023-09-07T01:11:42;7.05;;;4.60;;
81821;SDS011;72257;52.384;4.882;2023-09-07T01:14:08;10.00;;;4.75;;
81821;SDS011;72257;52.384;4.882;2023-09-07T01:16:34;6.25;;;4.65;;
81821;SDS011;72257;52.384;4.882;2023-09-07T01:19:00;8.68;;;4.65;;
81821;SDS011;72257;52.384;4.882;2023-09-07T01:21:27;7.63;;;4.75;;
81821;SDS011;72257;52.384;4.882;2023-09-07T01:23:59;7.22;;;4.78;;
81821;SDS011;72257;52.384;4.882;2023-09-07T01:26:25;7.45;;;4.93;;
81821;SDS011;72257;52.384;4.882;2023-09-07T01:28:50;6.22;;;4.55;;
81821;SDS011;72257;52.384;4.882;2023-09-07T01:31:16;6.25;;;4.82;;
81821;SDS011;72257;52.384;4.882;2023-09-07T01:33:41;6.07;;;4.60;;
81821;SDS011;72257;52.384;4.882;2023-09-07T01:36:06;7.73;;;5.10;;
81821;SDS011;72257;52.384;4.882;2023-09-07T01:38:32;7.22;;;4.53;;
81821;SDS011;72257;52.384;4.882;2023-09-07T01:40:57;8.43;;;4.97;;
81821;SDS011;72257;52.384;4.882;2023-09-07T01:43:22;7.03;;;4.90;;
81821;SDS011;72257;52.384;4.882;2023-09-07T01:45:47;6.97;;;4.87;;
81821;SDS011;72257;52.384;4.882;2023-09-07T01:48:13;6.10;;;4.63;;
81821;SDS011;72257;52.384;4.882;2023-09-07T01:50:39;5.45;;;4.35;;
81821;SDS011;72257;52.384;4.882;2023-09-07T01:53:04;6.37;;;4.90;;
81821;SDS011;72257;52.384;4.882;2023-09-07T01:55:33;7.17;;;4.57;;
81821;SDS011;72257;52.384;4.882;2023-09-07T01:57:58;5.38;;;4.43;;
81821;SDS011;72257;52.384;4.882;2023-09-07T02:00:23;6.38;;;4.32;;
81821;SDS011;72257;52.384;4.882;2023-09-07T02:02:49;8.13;;;4.67;;
81821;SDS011;72257;52.384;4.882;2023-09-07T02:05:14;5.57;;;4.37;;
81821;SDS011;72257;52.384;4.882;2023-09-07T02:07:39;8.73;;;5.10;;
81821;SDS011;72257;52.384;4.882;2023-09-07T02:10:05;6.40;;;4.65;;
81821;SDS011;72257;52.384;4.882;2023-09-07T02:12:31;7.40;;;4.90;;
81821;SDS011;72257;52.384;4.882;2023-09-07T02:14:56;6.50;;;4.70;;
81821;SDS011;72257;52.384;4.882;2023-09-07T02:17:23;6.32;;;4.55;;
81821;SDS011;72257;52.384;4.882;2023-09-07T02:19:49;8.60;;;5.13;;
81821;SDS011;72257;52.384;4.882;2023-09-07T02:22:15;7.47;;;4.75;;
81821;SDS011;72257;52.384;4.882;2023-09-07T02:24:40;6.33;;;4.37;;
81821;SDS011;72257;52.384;4.882;2023-09-07T02:27:05;7.70;;;4.73;;
81821;SDS011;72257;52.384;4.882;2023-09-07T02:29:31;6.70;;;4.50;;
81821;SDS011;72257;52.384;4.882;2023-09-07T02:31:56;6.47;;;4.33;;
81821;SDS011;72257;52.384;4.882;2023-09-07T02:34:22;7.45;;;4.57;;
81821;SDS011;72257;52.384;4.882;2023-09-07T02:36:48;6.63;;;4.37;;
81821;SDS011;72257;52.384;4.882;2023-09-07T02:39:13;8.90;;;4.73;;
81821;SDS011;72257;52.384;4.882;2023-09-07T02:41:38;12.90;;;4.85;;
81821;SDS011;72257;52.384;4.882;2023-09-07T02:44:04;7.60;;;4.70;;
81821;SDS011;72257;52.384;4.882;2023-09-07T02:46:29;8.68;;;4.82;;
81821;SDS011;72257;52.384;4.882;2023-09-07T02:48:56;6.40;;;4.87;;
81821;SDS011;72257;52.384;4.882;2023-09-07T02:51:22;8.95;;;5.55;;
81821;SDS011;72257;52.384;4.882;2023-09-07T02:53:49;7.13;;;4.85;;
81821;SDS011;72257;52.384;4.882;2023-09-07T02:56:15;8.05;;;4.82;;
81821;SDS011;72257;52.384;4.882;2023-09-07T02:58:40;6.77;;;5.23;;
81821;SDS011;72257;52.384;4.882;2023-09-07T03:01:08;6.57;;;5.00;;
81821;SDS011;72257;52.384;4.882;2023-09-07T03:03:34;7.22;;;5.40;;
81821;SDS011;72257;52.384;4.882;2023-09-07T03:06:07;7.88;;;4.85;;
81821;SDS011;72257;52.384;4.882;2023-09-07T03:08:36;8.05;;;4.68;;
81821;SDS011;72257;52.384;4.882;2023-09-07T03:11:05;7.40;;;5.15;;
81821;SDS011;72257;52.384;4.882;2023-09-07T03:13:32;6.53;;;5.15;;
81821;SDS011;72257;52.384;4.882;2023-09-07T03:15:57;7.55;;;5.25;;
81821;SDS011;72257;52.384;4.882;2023-09-07T03:18:23;9.10;;;5.32;;
81821;SDS011;72257;52.384;4.882;2023-09-07T03:20:53;9.55;;;5.45;;
81821;SDS011;72257;52.384;4.882;2023-09-07T03:23:19;8.95;;;5.03;;
81821;SDS011;72257;52.384;4.882;2023-09-07T03:25:44;8.07;;;5.05;;
81821;SDS011;72257;52.384;4.882;2023-09-07T03:28:10;8.37;;;5.30;;
81821;SDS011;72257;52.384;4.882;2023-09-07T03:30:35;8.43;;;5.43;;
81821;SDS011;72257;52.384;4.882;2023-09-07T03:33:00;7.63;;;5.47;;
81821;SDS011;72257;52.384;4.882;2023-09-07T03:35:26;8.27;;;5.53;;
81821;SDS011;72257;52.384;4.882;2023-09-07T03:37:52;8.20;;;5.20;;
81821;SDS011;72257;52.384;4.882;2023-09-07T03:40:17;8.07;;;5.23;;
81821;SDS011;72257;52.384;4.882;2023-09-07T03:42:42;7.53;;;5.53;;
81821;SDS011;72257;52.384;4.882;2023-09-07T03:45:10;8.82;;;6.47;;
81821;SDS011;72257;52.384;4.882;2023-09-07T03:47:36;6.63;;;4.95;;
81821;SDS011;72257;52.384;4.882;2023-09-07T03:50:02;8.73;;;5.63;;
81821;SDS011;72257;52.384;4.882;2023-09-07T03:52:28;9.18;;;5.57;;
81821;SDS011;72257;52.384;4.882;2023-09-07T03:54:54;8.90;;;6.05;;
81821;SDS011;72257;52.384;4.882;2023-09-07T03:57:20;8.77;;;6.10;;
81821;SDS011;72257;52.384;4.882;2023-09-07T03:59:47;7.80;;;6.18;;
81821;SDS011;72257;52.384;4.882;2023-09-07T04:02:13;9.05;;;5.75;;
81821;SDS011;72257;52.384;4.882;2023-09-07T04:04:38;8.60;;;6.03;;
81821;SDS011;72257;52.384;4.882;2023-09-07T04:07:04;10.43;;;5.87;;
81821;SDS011;72257;52.384;4.882;2023-09-07T04:09:29;7.35;;;5.22;;
81821;SDS011;72257;52.384;4.882;2023-09-07T04:11:54;10.15;;;6.15;;
81821;SDS011;72257;52.384;4.882;2023-09-07T04:14:20;9.30;;;6.20;;
81821;SDS011;72257;52.384;4.882;2023-09-07T04:16:45;11.70;;;6.57;;
81821;SDS011;72257;52.384;4.882;2023-09-07T04:19:10;8.43;;;6.27;;
81821;SDS011;72257;52.384;4.882;2023-09-07T04:21:36;7.97;;;6.13;;
81821;SDS011;72257;52.384;4.882;2023-09-07T04:24:02;9.50;;;6.05;;
81821;SDS011;72257;52.384;4.882;2023-09-07T04:26:27;9.27;;;5.72;;
81821;SDS011;72257;52.384;4.882;2023-09-07T04:28:54;8.90;;;6.30;;
81821;SDS011;72257;52.384;4.882;2023-09-07T04:31:19;8.53;;;6.20;;
81821;SDS011;72257;52.384;4.882;2023-09-07T04:33:45;8.18;;;5.75;;
81821;SDS011;72257;52.384;4.882;2023-09-07T04:36:11;8.07;;;6.23;;
81821;SDS011;72257;52.384;4.882;2023-09-07T04:38:38;9.68;;;6.00;;
81821;SDS011;72257;52.384;4.882;2023-09-07T04:41:07;12.57;;;6.15;;
81821;SDS011;72257;52.384;4.882;2023-09-07T04:43:33;10.00;;;5.75;;
81821;SDS011;72257;52.384;4.882;2023-09-07T04:45:59;10.90;;;6.38;;
81821;SDS011;72257;52.384;4.882;2023-09-07T04:48:24;9.17;;;6.43;;
81821;SDS011;72257;52.384;4.882;2023-09-07T04:50:57;7.30;;;5.90;;
81821;SDS011;72257;52.384;4.882;2023-09-07T04:53:32;8.65;;;6.15;;
81821;SDS011;72257;52.384;4.882;2023-09-07T04:56:00;7.32;;;5.57;;
81821;SDS011;72257;52.384;4.882;2023-09-07T04:58:25;11.70;;;6.03;;
81821;SDS011;72257;52.384;4.882;2023-09-07T05:00:53;8.75;;;6.05;;
81821;SDS011;72257;52.384;4.882;2023-09-07T05:03:19;8.85;;;5.97;;
81821;SDS011;72257;52.384;4.882;2023-09-07T05:05:44;8.70;;;6.53;;
81821;SDS011;72257;52.384;4.882;2023-09-07T05:08:10;8.55;;;6.50;;
81821;SDS011;72257;52.384;4.882;2023-09-07T05:10:36;10.45;;;6.68;;
81821;SDS011;72257;52.384;4.882;2023-09-07T05:13:02;9.65;;;6.70;;
81821;SDS011;72257;52.384;4.882;2023-09-07T05:15:27;9.23;;;6.47;;
81821;SDS011;72257;52.384;4.882;2023-09-07T05:17:53;8.55;;;6.10;;
81821;SDS011;72257;52.384;4.882;2023-09-07T05:20:19;12.15;;;7.35;;
81821;SDS011;72257;52.384;4.882;2023-09-07T05:22:44;10.33;;;7.37;;
81821;SDS011;72257;52.384;4.882;2023-09-07T05:25:10;8.77;;;6.10;;
81821;SDS011;72257;52.384;4.882;2023-09-07T05:27:36;10.75;;;6.53;;
81821;SDS011;72257;52.384;4.882;2023-09-07T05:30:02;10.75;;;6.95;;
81821;SDS011;72257;52.384;4.882;2023-09-07T05:32:28;9.30;;;6.18;;
81821;SDS011;72257;52.384;4.882;2023-09-07T05:34:54;13.43;;;6.60;;
81821;SDS011;72257;52.384;4.882;2023-09-07T05:37:19;8.03;;;6.30;;
81821;SDS011;72257;52.384;4.882;2023-09-07T05:39:44;9.20;;;6.23;;
81821;SDS011;72257;52.384;4.882;2023-09-07T05:42:10;13.07;;;6.83;;
81821;SDS011;72257;52.384;4.882;2023-09-07T05:44:35;9.38;;;6.38;;
81821;SDS011;72257;52.384;4.882;2023-09-07T05:47:01;9.53;;;6.20;;
81821;SDS011;72257;52.384;4.882;2023-09-07T05:49:27;8.65;;;6.57;;
81821;SDS011;72257;52.384;4.882;2023-09-07T05:51:53;11.10;;;6.35;;
81821;SDS011;72257;52.384;4.882;2023-09-07T05:54:19;11.30;;;6.68;;
81821;SDS011;72257;52.384;4.882;2023-09-07T05:56:44;12.43;;;7.17;;
81821;SDS011;72257;52.384;4.882;2023-09-07T05:59:10;11.43;;;6.37;;
81821;SDS011;72257;52.384;4.882;2023-09-07T06:01:35;10.27;;;6.10;;
81821;SDS011;72257;52.384;4.882;2023-09-07T06:04:00;12.45;;;6.38;;
81821;SDS011;72257;52.384;4.882;2023-09-07T06:06:26;9.75;;;6.57;;
81821;SDS011;72257;52.384;4.882;2023-09-07T06:08:51;8.73;;;6.43;;
81821;SDS011;72257;52.384;4.882;2023-09-07T06:11:16;13.43;;;6.80;;
81821;SDS011;72257;52.384;4.882;2023-09-07T06:13:41;10.10;;;6.37;;
81821;SDS011;72257;52.384;4.882;2023-09-07T06:16:07;10.75;;;6.40;;
81821;SDS011;72257;52.384;4.882;2023-09-07T06:18:32;10.13;;;6.45;;
81821;SDS011;72257;52.384;4.882;2023-09-07T06:20:57;10.50;;;6.40;;
81821;SDS011;72257;52.384;4.882;2023-09-07T06:23:23;11.63;;;6.13;;
81821;SDS011;72257;52.384;4.882;2023-09-07T06:25:48;8.43;;;6.57;;
81821;SDS011;72257;52.384;4.882;2023-09-07T06:28:14;12.65;;;6.78;;
81821;SDS011;72257;52.384;4.882;2023-09-07T06:30:39;9.43;;;6.27;;
81821;SDS011;72257;52.384;4.882;2023-09-07T06:33:05;10.43;;;6.40;;
81821;SDS011;72257;52.384;4.882;2023-09-07T06:35:30;10.97;;;6.43;;
81821;SDS011;72257;52.384;4.882;2023-09-07T06:37:55;12.70;;;6.30;;
81821;SDS011;72257;52.384;4.882;2023-09-07T06:40:21;10.93;;;6.93;;
81821;SDS011;72257;52.384;4.882;2023-09-07T06:42:47;11.15;;;6.88;;
81821;SDS011;72257;52.384;4.882;2023-09-07T06:45:12;9.35;;;6.00;;
81821;SDS011;72257;52.384;4.882;2023-09-07T06:47:38;9.25;;;6.00;;
81821;SDS011;72257;52.384;4.882;2023-09-07T06:50:04;10.07;;;6.05;;
81821;SDS011;72257;52.384;4.882;2023-09-07T06:52:30;9.35;;;5.63;;
81821;SDS011;72257;52.384;4.882;2023-09-07T06:54:55;8.82;;;5.93;;
81821;SDS011;72257;52.384;4.882;2023-09-07T06:57:21;10.07;;;6.50;;
81821;SDS011;72257;52.384;4.882;2023-09-07T06:59:46;11.80;;;6.30;;
81821;SDS011;72257;52.384;4.882;2023-09-07T07:02:12;10.70;;;5.97;;
81821;SDS011;72257;52.384;4.882;2023-09-07T07:04:37;9.05;;;6.13;;
81821;SDS011;72257;52.384;4.882;2023-09-07T07:07:03;9.00;;;5.77;;
81821;SDS011;72257;52.384;4.882;2023-09-07T07:09:32;8.85;;;5.78;;
81821;SDS011;72257;52.384;4.882;2023-09-07T07:11:59;7.82;;;5.82;;
81821;SDS011;72257;52.384;4.882;2023-09-07T07:14:27;8.77;;;5.72;;
81821;SDS011;72257;52.384;4.882;2023-09-07T07:16:53;10.23;;;6.28;;
81821;SDS011;72257;52.384;4.882;2023-09-07T07:19:18;9.13;;;6.15;;
81821;SDS011;72257;52.384;4.882;2023-09-07T07:21:44;9.67;;;6.30;;
81821;SDS011;72257;52.384;4.882;2023-09-07T07:24:09;9.85;;;6.38;;
81821;SDS011;72257;52.384;4.882;2023-09-07T07:26:35;9.10;;;6.10;;
81821;SDS011;72257;52.384;4.882;2023-09-07T07:29:01;10.52;;;6.47;;
81821;SDS011;72257;52.384;4.882;2023-09-07T07:31:28;9.10;;;6.07;;
81821;SDS011;72257;52.384;4.882;2023-09-07T07:33:54;8.25;;;6.13;;
81821;SDS011;72257;52.384;4.882;2023-09-07T07:36:20;10.65;;;6.28;;
81821;SDS011;72257;52.384;4.882;2023-09-07T07:38:46;8.38;;;6.00;;
81821;SDS011;72257;52.384;4.882;2023-09-07T07:41:11;10.50;;;5.88;;
81821;SDS011;72257;52.384;4.882;2023-09-07T07:43:36;10.07;;;5.93;;
81821;SDS011;72257;52.384;4.882;2023-09-07T07:46:02;10.23;;;6.32;;
81821;SDS011;72257;52.384;4.882;2023-09-07T07:48:27;8.13;;;5.90;;
81821;SDS011;72257;52.384;4.882;2023-09-07T07:50:54;8.85;;;6.05;;
81821;SDS011;72257;52.384;4.882;2023-09-07T07:53:20;7.65;;;5.50;;
81821;SDS011;72257;52.384;4.882;2023-09-07T07:55:45;6.97;;;5.37;;
81821;SDS011;72257;52.384;4.882;2023-09-07T07:58:11;10.00;;;5.68;;
81821;SDS011;72257;52.384;4.882;2023-09-07T08:00:39;7.88;;;5.07;;
81821;SDS011;72257;52.384;4.882;2023-09-07T08:03:12;10.70;;;5.93;;
81821;SDS011;72257;52.384;4.882;2023-09-07T08:05:38;9.95;;;6.82;;
81821;SDS011;72257;52.384;4.882;2023-09-07T08:08:04;10.52;;;6.18;;
81821;SDS011;72257;52.384;4.882;2023-09-07T08:10:33;8.70;;;5.68;;
81821;SDS011;72257;52.384;4.882;2023-09-07T08:12:58;9.55;;;6.20;;
81821;SDS011;72257;52.384;4.882;2023-09-07T08:15:24;8.63;;;5.70;;
81821;SDS011;72257;52.384;4.882;2023-09-07T08:17:50;10.80;;;6.60;;
81821;SDS011;72257;52.384;4.882;2023-09-07T08:20:16;10.20;;;5.75;;
81821;SDS011;72257;52.384;4.882;2023-09-07T08:22:41;9.85;;;6.18;;
81821;SDS011;72257;52.384;4.882;2023-09-07T08:25:10;8.98;;;5.70;;
81821;SDS011;72257;52.384;4.882;2023-09-07T08:27:38;8.38;;;5.78;;
81821;SDS011;72257;52.384;4.882;2023-09-07T08:30:03;9.10;;;6.10;;
81821;SDS011;72257;52.384;4.882;2023-09-07T08:32:31;9.32;;;6.18;;
81821;SDS011;72257;52.384;4.882;2023-09-07T08:34:56;7.53;;;5.32;;
81821;SDS011;72257;52.384;4.882;2023-09-07T08:37:25;9.85;;;6.28;;
81821;SDS011;72257;52.384;4.882;2023-09-07T08:39:51;8.43;;;5.90;;
81821;SDS011;72257;52.384;4.882;2023-09-07T08:42:16;7.93;;;5.87;;
81821;SDS011;72257;52.384;4.882;2023-09-07T08:44:42;8.63;;;5.53;;
81821;SDS011;72257;52.384;4.882;2023-09-07T08:47:11;8.65;;;5.90;;
81821;SDS011;72257;52.384;4.882;2023-09-07T08:49:39;8.27;;;5.82;;
81821;SDS011;72257;52.384;4.882;2023-09-07T08:52:06;10.10;;;5.63;;
81821;SDS011;72257;52.384;4.882;2023-09-07T08:54:32;10.05;;;5.90;;
81821;SDS011;72257;52.384;4.882;2023-09-07T08:56:58;11.00;;;6.80;;
81821;SDS011;72257;52.384;4.882;2023-09-07T08:59:23;8.15;;;5.20;;
81821;SDS011;72257;52.384;4.882;2023-09-07T09:01:49;9.90;;;6.03;;
81821;SDS011;72257;52.384;4.882;2023-09-07T09:04:14;8.77;;;5.40;;
81821;SDS011;72257;52.384;4.882;2023-09-07T09:06:40;9.35;;;5.93;;
81821;SDS011;72257;52.384;4.882;2023-09-07T09:09:06;9.60;;;5.43;;
81821;SDS011;72257;52.384;4.882;2023-09-07T09:11:31;8.23;;;5.63;;
81821;SDS011;72257;52.384;4.882;2023-09-07T09:13:56;7.83;;;5.50;;
81821;SDS011;72257;52.384;4.882;2023-09-07T09:16:22;10.17;;;5.83;;
81821;SDS011;72257;52.384;4.882;2023-09-07T09:18:50;9.00;;;5.93;;
81821;SDS011;72257;52.384;4.882;2023-09-07T09:21:18;14.13;;;7.90;;
81821;SDS011;72257;52.384;4.882;2023-09-07T09:23:46;8.75;;;5.75;;
81821;SDS011;72257;52.384;4.882;2023-09-07T09:26:13;12.93;;;7.20;;
81821;SDS011;72257;52.384;4.882;2023-09-07T09:28:38;9.77;;;5.78;;
81821;SDS011;72257;52.384;4.882;2023-09-07T09:31:04;9.52;;;5.65;;
81821;SDS011;72257;52.384;4.882;2023-09-07T09:33:32;9.75;;;5.85;;
81821;SDS011;72257;52.384;4.882;2023-09-07T09:36:00;7.97;;;5.45;;
81821;SDS011;72257;52.384;4.882;2023-09-07T09:38:25;10.68;;;5.75;;
81821;SDS011;72257;52.384;4.882;2023-09-07T09:40:51;17.40;;;8.90;;
81821;SDS011;72257;52.384;4.882;2023-09-07T09:43:18;9.35;;;5.90;;
81821;SDS011;72257;52.384;4.882;2023-09-07T09:45:44;10.73;;;6.32;;
81821;SDS011;72257;52.384;4.882;2023-09-07T09:48:10;9.77;;;6.37;;
81821;SDS011;72257;52.384;4.882;2023-09-07T09:50:36;10.57;;;6.95;;
81821;SDS011;72257;52.384;4.882;2023-09-07T09:53:07;7.55;;;5.70;;
81821;SDS011;72257;52.384;4.882;2023-09-07T09:55:36;9.25;;;5.70;;
81821;SDS011;72257;52.384;4.882;2023-09-07T09:58:01;8.40;;;5.97;;
81821;SDS011;72257;52.384;4.882;2023-09-07T10:00:27;12.10;;;6.50;;
81821;SDS011;72257;52.384;4.882;2023-09-07T10:02:55;11.52;;;6.55;;
81821;SDS011;72257;52.384;4.882;2023-09-07T10:05:25;7.95;;;5.47;;
81821;SDS011;72257;52.384;4.882;2023-09-07T10:07:52;8.85;;;5.68;;
81821;SDS011;72257;52.384;4.882;2023-09-07T10:10:18;8.18;;;6.18;;
81821;SDS011;72257;52.384;4.882;2023-09-07T10:12:45;9.20;;;7.05;;
81821;SDS011;72257;52.384;4.882;2023-09-07T10:15:26;9.43;;;7.10;;
81821;SDS011;72257;52.384;4.882;2023-09-07T10:18:02;11.27;;;6.07;;
81821;SDS011;72257;52.384;4.882;2023-09-07T10:20:29;11.35;;;5.50;;
81821;SDS011;72257;52.384;4.882;2023-09-07T10:23:11;7.22;;;5.40;;
81821;SDS011;72257;52.384;4.882;2023-09-07T10:25:36;9.50;;;5.60;;
81821;SDS011;72257;52.384;4.882;2023-09-07T10:28:01;7.00;;;5.23;;
81821;SDS011;72257;52.384;4.882;2023-09-07T10:30:27;7.55;;;5.50;;
81821;SDS011;72257;52.384;4.882;2023-09-07T10:32:54;7.50;;;5.15;;
81821;SDS011;72257;52.384;4.882;2023-09-07T10:35:19;6.55;;;5.07;;
81821;SDS011;72257;52.384;4.882;2023-09-07T10:37:48;10.07;;;5.63;;
81821;SDS011;72257;52.384;4.882;2023-09-07T10:40:20;11.30;;;6.90;;
81821;SDS011;72257;52.384;4.882;2023-09-07T10:42:47;7.93;;;5.32;;
81821;SDS011;72257;52.384;4.882;2023-09-07T10:45:13;6.75;;;4.90;;
81821;SDS011;72257;52.384;4.882;2023-09-07T10:47:44;7.32;;;5.60;;
81821;SDS011;72257;52.384;4.882;2023-09-07T10:50:11;7.50;;;5.22;;
81821;SDS011;72257;52.384;4.882;2023-09-07T10:55:05;8.85;;;4.97;;
81821;SDS011;72257;52.384;4.882;2023-09-07T10:57:31;10.45;;;6.10;;
81821;SDS011;72257;52.384;4.882;2023-09-07T10:59:56;12.10;;;5.73;;
81821;SDS011;72257;52.384;4.882;2023-09-07T11:02:22;7.53;;;4.75;;
81821;SDS011;72257;52.384;4.882;2023-09-07T11:04:47;6.50;;;4.93;;
81821;SDS011;72257;52.384;4.882;2023-09-07T11:07:12;7.40;;;4.97;;
81821;SDS011;72257;52.384;4.882;2023-09-07T11:09:42;5.90;;;4.88;;
81821;SDS011;72257;52.384;4.882;2023-09-07T11:12:07;7.68;;;5.97;;
81821;SDS011;72257;52.384;4.882;2023-09-07T11:14:33;11.30;;;5.10;;
81821;SDS011;72257;52.384;4.882;2023-09-07T11:17:00;14.40;;;8.55;;
81821;SDS011;72257;52.384;4.882;2023-09-07T11:19:31;9.23;;;6.63;;
81821;SDS011;72257;52.384;4.882;2023-09-07T11:21:57;6.70;;;4.78;;
81821;SDS011;72257;52.384;4.882;2023-09-07T11:24:22;6.70;;;5.13;;
81821;SDS011;72257;52.384;4.882;2023-09-07T11:26:48;6.20;;;4.47;;
81821;SDS011;72257;52.384;4.882;2023-09-07T11:29:14;8.83;;;4.90;;
81821;SDS011;72257;52.384;4.882;2023-09-07T11:31:43;6.70;;;5.22;;
81821;SDS011;72257;52.384;4.882;2023-09-07T11:34:13;6.55;;;4.75;;
81821;SDS011;72257;52.384;4.882;2023-09-07T11:36:39;7.45;;;5.28;;
81821;SDS011;72257;52.384;4.882;2023-09-07T11:39:05;7.57;;;5.50;;
81821;SDS011;72257;52.384;4.882;2023-09-07T11:41:37;7.05;;;4.80;;
81821;SDS011;72257;52.384;4.882;2023-09-07T11:44:03;6.55;;;4.95;;
81821;SDS011;72257;52.384;4.882;2023-09-07T11:46:29;8.95;;;5.35;;
81821;SDS011;72257;52.384;4.882;2023-09-07T11:48:54;7.03;;;5.17;;
81821;SDS011;72257;52.384;4.882;2023-09-07T11:51:19;6.17;;;5.00;;
81821;SDS011;72257;52.384;4.882;2023-09-07T11:53:46;7.88;;;4.47;;
81821;SDS011;72257;52.384;4.882;2023-09-07T11:56:11;6.00;;;4.53;;
81821;SDS011;72257;52.384;4.882;2023-09-07T11:58:37;10.67;;;4.97;;
81821;SDS011;72257;52.384;4.882;2023-09-07T12:01:02;9.20;;;5.77;;
81821;SDS011;72257;52.384;4.882;2023-09-07T12:03:29;8.90;;;5.72;;
81821;SDS011;72257;52.384;4.882;2023-09-07T12:05:55;7.53;;;4.50;;
81821;SDS011;72257;52.384;4.882;2023-09-07T12:08:20;8.15;;;4.57;;
81821;SDS011;72257;52.384;4.882;2023-09-07T12:10:45;8.77;;;5.87;;
81821;SDS011;72257;52.384;4.882;2023-09-07T12:13:11;6.40;;;5.07;;
81821;SDS011;72257;52.384;4.882;2023-09-07T12:15:37;7.57;;;4.70;;
81821;SDS011;72257;52.384;4.882;2023-09-07T12:18:02;7.43;;;4.85;;
81821;SDS011;72257;52.384;4.882;2023-09-07T12:20:28;6.90;;;4.43;;
81821;SDS011;72257;52.384;4.882;2023-09-07T12:22:54;6.10;;;4.65;;
81821;SDS011;72257;52.384;4.882;2023-09-07T12:25:19;7.93;;;4.37;;
81821;SDS011;72257;52.384;4.882;2023-09-07T12:27:44;5.53;;;4.43;;
81821;SDS011;72257;52.384;4.882;2023-09-07T12:30:11;5.90;;;4.50;;
81821;SDS011;72257;52.384;4.882;2023-09-07T12:32:38;7.43;;;4.72;;
81821;SDS011;72257;52.384;4.882;2023-09-07T12:35:05;8.68;;;5.28;;
81821;SDS011;72257;52.384;4.882;2023-09-07T12:37:33;7.40;;;4.82;;
81821;SDS011;72257;52.384;4.882;2023-09-07T12:40:00;6.40;;;4.78;;
81821;SDS011;72257;52.384;4.882;2023-09-07T12:42:25;9.40;;;5.78;;
81821;SDS011;72257;52.384;4.882;2023-09-07T12:44:50;6.57;;;4.63;;
81821;SDS011;72257;52.384;4.882;2023-09-07T12:47:16;6.40;;;4.90;;
81821;SDS011;72257;52.384;4.882;2023-09-07T12:49:41;7.38;;;4.90;;
81821;SDS011;72257;52.384;4.882;2023-09-07T12:52:07;9.93;;;4.60;;
81821;SDS011;72257;52.384;4.882;2023-09-07T12:54:33;6.43;;;4.70;;
81821;SDS011;72257;52.384;4.882;2023-09-07T12:56:59;6.25;;;4.80;;
81821;SDS011;72257;52.384;4.882;2023-09-07T12:59:24;7.97;;;4.60;;
81821;SDS011;72257;52.384;4.882;2023-09-07T13:01:49;7.63;;;5.27;;
81821;SDS011;72257;52.384;4.882;2023-09-07T13:04:15;5.45;;;4.80;;
81821;SDS011;72257;52.384;4.882;2023-09-07T13:06:41;8.00;;;5.40;;
81821;SDS011;72257;52.384;4.882;2023-09-07T13:09:06;9.20;;;6.40;;
81821;SDS011;72257;52.384;4.882;2023-09-07T13:11:32;7.80;;;5.72;;
81821;SDS011;72257;52.384;4.882;2023-09-07T13:13:58;7.65;;;4.60;;
81821;SDS011;72257;52.384;4.882;2023-09-07T13:16:24;11.43;;;6.70;;
81821;SDS011;72257;52.384;4.882;2023-09-07T13:18:49;7.38;;;5.03;;
81821;SDS011;72257;52.384;4.882;2023-09-07T13:21:14;7.53;;;4.70;;
81821;SDS011;72257;52.384;4.882;2023-09-07T13:23:40;5.53;;;4.93;;
81821;SDS011;72257;52.384;4.882;2023-09-07T13:26:06;9.10;;;5.53;;
81821;SDS011;72257;52.384;4.882;2023-09-07T13:28:31;7.90;;;5.00;;
81821;SDS011;72257;52.384;4.882;2023-09-07T13:30:57;6.35;;;4.90;;
81821;SDS011;72257;52.384;4.882;2023-09-07T13:33:22;8.57;;;5.60;;
81821;SDS011;72257;52.384;4.882;2023-09-07T13:35:48;5.67;;;4.63;;
81821;SDS011;72257;52.384;4.882;2023-09-07T13:38:13;5.90;;;4.43;;
81821;SDS011;72257;52.384;4.882;2023-09-07T13:40:38;5.70;;;4.90;;
81821;SDS011;72257;52.384;4.882;2023-09-07T13:43:04;7.35;;;5.20;;
81821;SDS011;72257;52.384;4.882;2023-09-07T13:45:29;6.27;;;4.80;;
81821;SDS011;72257;52.384;4.882;2023-09-07T13:47:55;6.60;;;4.90;;
81821;SDS011;72257;52.384;4.882;2023-09-07T13:50:21;5.53;;;4.70;;
81821;SDS011;72257;52.384;4.882;2023-09-07T13:52:47;5.55;;;4.68;;
81821;SDS011;72257;52.384;4.882;2023-09-07T13:55:13;5.55;;;4.93;;
81821;SDS011;72257;52.384;4.882;2023-09-07T13:57:38;5.57;;;4.97;;
81821;SDS011;72257;52.384;4.882;2023-09-07T14:00:03;6.60;;;4.67;;
81821;SDS011;72257;52.384;4.882;2023-09-07T14:02:30;6.95;;;5.60;;
81821;SDS011;72257;52.384;4.882;2023-09-07T14:04:57;6.10;;;5.40;;
81821;SDS011;72257;52.384;4.882;2023-09-07T14:07:22;5.53;;;4.93;;
81821;SDS011;72257;52.384;4.882;2023-09-07T14:09:50;5.55;;;4.80;;
81821;SDS011;72257;52.384;4.882;2023-09-07T14:12:16;6.07;;;4.75;;
81821;SDS011;72257;52.384;4.882;2023-09-07T14:14:41;5.03;;;4.53;;
81821;SDS011;72257;52.384;4.882;2023-09-07T14:17:07;5.63;;;4.10;;
81821;SDS011;72257;52.384;4.882;2023-09-07T14:19:32;5.07;;;4.23;;
81821;SDS011;72257;52.384;4.882;2023-09-07T14:21:57;4.57;;;4.07;;
81821;SDS011;72257;52.384;4.882;2023-09-07T14:24:23;5.05;;;4.55;;
81821;SDS011;72257;52.384;4.882;2023-09-07T14:26:49;5.15;;;4.60;;
81821;SDS011;72257;52.384;4.882;2023-09-07T14:29:14;5.03;;;4.10;;
81821;SDS011;72257;52.384;4.882;2023-09-07T14:31:40;6.40;;;5.20;;
81821;SDS011;72257;52.384;4.882;2023-09-07T14:34:07;4.72;;;4.10;;
81821;SDS011;72257;52.384;4.882;2023-09-07T14:36:32;5.13;;;4.10;;
81821;SDS011;72257;52.384;4.882;2023-09-07T14:38:58;5.13;;;4.17;;
81821;SDS011;72257;52.384;4.882;2023-09-07T14:41:23;6.15;;;4.55;;
81821;SDS011;72257;52.384;4.882;2023-09-07T14:43:48;4.80;;;4.03;;